Search for airport 
image banner adimage banner adimage banner ad
image banner ad

O21 - Hoopa

Located in Hoopa, United States

ICAO - O21, IATA -

Data provided by Airmate  

General information

Coordinates: N41°2'29" W123°40'4"
Elevation is 356 feet MSL.
Magnetic variation is 17° East
View others Airports in California

Operational data

Special qualification required
Current time UTC:
Current local time:
Weather at : KACV - Arcata ( 38 km )
METAR: KACV 270453Z AUTO 17007KT 5SM BR OVC003 12/11 A2996 RMK AO2 SLP151 T01220111
TAF: KACV 270023Z 2700/2724 22008KT 6SM BR BKN007 FM270400 17007KT 2SM BR OVC004 FM271300 23002KT 1/2SM FG OVC002 FM272000 23006KT 6SM BR HZ OVC004
View NOTAMs / SUP AIP / TFR affecting this airport [VIEW]
Communications frequencies: [VIEW]

Runways:

RWY identifierQFULength (ft)Width (ft)SurfaceLDA (ft)
14232550ASPH
32232550ASPH

Airport contact information

Address: Hoopa United States

Satellite view of O21